Time;durP1;ratioP1;P1;durP2;ratioP2;P2;SDS_P1;SDS_P2;PMS_P1;PMS_P2;Temp;Humidity;BMP_temperature;BMP_pressure;BME280_temperature;BME280_humidity;BME280_pressure;Samples;Min_cycle;Max_cycle;Signal;HPM_P1;HPM_P2
2022/09/01 00:01:55;;;;;;;7.63;2.40;;;24.50;47.20;;;;;;5071142;28;20293;-93
2022/09/01 00:04:25;;;;;;;12.10;3.93;;;24.40;47.20;;;;;;5070620;28;20752;-92
2022/09/01 00:06:54;;;;;;;12.47;3.90;;;24.40;47.30;;;;;;5077853;22;20724;-93
2022/09/01 00:09:24;;;;;;;3.33;1.53;;;24.40;47.90;;;;;;5069521;28;20207;-93
2022/09/01 00:12:03;;;;;;;8.43;2.80;;;24.40;47.30;;;;;;5071449;28;20202;-93
2022/09/01 00:14:35;;;;;;;9.33;2.80;;;24.30;47.30;;;;;;5070520;28;20592;-92
2022/09/01 00:20:13;;;;;;;12.23;4.13;;;24.30;47.40;;;;;;5071776;28;20878;-92
2022/09/01 00:22:40;;;;;;;15.90;4.30;;;24.20;47.40;;;;;;5070024;28;20215;-89
2022/09/01 00:25:09;;;;;;;12.47;3.57;;;24.20;47.50;;;;;;5070368;28;20231;-92
2022/09/01 00:27:39;;;;;;;11.50;3.60;;;24.10;47.50;;;;;;5067533;28;20222;-92
2022/09/01 00:30:12;;;;;;;6.10;2.33;;;24.10;47.60;;;;;;5071585;28;20584;-92
2022/09/01 00:32:39;;;;;;;5.67;2.20;;;24.10;47.70;;;;;;5069979;28;20211;-93
2022/09/01 00:37:48;;;;;;;6.40;2.40;;;24.00;47.60;;;;;;5047264;28;20203;-91
2022/09/01 00:40:18;;;;;;;6.97;2.60;;;24.00;47.80;;;;;;5072199;28;20231;-92
2022/09/01 00:42:49;;;;;;;5.67;2.10;;;23.90;47.80;;;;;;5069217;28;20207;-92
2022/09/01 00:45:18;;;;;;;5.03;1.70;;;23.80;47.80;;;;;;5059041;28;20240;-91
2022/09/01 00:47:45;;;;;;;13.40;4.53;;;23.90;48.00;;;;;;5070916;28;20731;-91
2022/09/01 00:50:13;;;;;;;11.37;3.70;;;23.80;47.90;;;;;;5068353;28;20210;-91
2022/09/01 00:52:46;;;;;;;10.00;3.53;;;23.80;48.10;;;;;;5053053;28;20249;-93
2022/09/01 00:55:18;;;;;;;11.10;3.50;;;23.80;48.20;;;;;;5071750;28;20196;-92
2022/09/01 00:57:49;;;;;;;10.00;3.50;;;23.80;48.30;;;;;;5067964;28;20210;-93
2022/09/01 01:00:24;;;;;;;13.30;4.23;;;23.80;48.30;;;;;;5076747;28;20194;-91
2022/09/01 01:02:54;;;;;;;8.20;2.80;;;23.70;48.40;;;;;;5088427;28;20216;-89
2022/09/01 01:05:22;;;;;;;14.30;4.50;;;23.70;48.20;;;;;;5085281;28;20228;-93
2022/09/01 01:07:53;;;;;;;10.70;3.37;;;23.70;48.40;;;;;;5065570;28;20660;-92
2022/09/01 01:10:31;;;;;;;13.57;4.63;;;23.70;48.50;;;;;;5063607;28;20206;-92
2022/09/01 01:13:08;;;;;;;7.77;2.83;;;23.60;48.60;;;;;;5066789;28;20270;-92
2022/09/01 01:15:39;;;;;;;8.77;3.10;;;23.60;48.60;;;;;;5070250;28;20679;-92
2022/09/01 01:18:06;;;;;;;5.70;2.20;;;23.60;48.60;;;;;;5070526;28;20203;-92
2022/09/01 01:23:29;;;;;;;5.37;2.13;;;23.60;48.70;;;;;;5066994;28;20206;-92
2022/09/01 01:26:00;;;;;;;6.37;2.40;;;23.60;48.90;;;;;;5069905;28;20234;-92
2022/09/01 01:28:34;;;;;;;7.50;2.70;;;23.60;48.90;;;;;;5067837;28;20195;-92
2022/09/01 01:31:10;;;;;;;10.30;3.30;;;23.50;49.00;;;;;;5068915;28;20659;-92
2022/09/01 01:33:40;;;;;;;15.70;4.40;;;23.50;49.00;;;;;;5068621;28;20233;-92
2022/09/01 01:36:11;;;;;;;6.00;2.33;;;23.50;49.10;;;;;;5070180;28;20261;-93
2022/09/01 01:38:43;;;;;;;6.83;2.67;;;23.50;49.10;;;;;;5067942;28;20728;-91
2022/09/01 01:41:18;;;;;;;17.23;5.37;;;23.50;49.30;;;;;;5069598;28;20261;-91
2022/09/01 01:43:49;;;;;;;8.97;3.23;;;23.40;49.40;;;;;;5061571;28;20213;-91
2022/09/01 01:46:24;;;;;;;10.63;3.57;;;23.40;49.40;;;;;;5068740;28;20216;-92
2022/09/01 01:48:54;;;;;;;8.27;3.17;;;23.40;49.40;;;;;;5069369;28;20238;-91
2022/09/01 01:51:27;;;;;;;8.83;3.30;;;23.40;49.40;;;;;;5066792;28;20191;-93
2022/09/01 01:54:04;;;;;;;8.77;2.70;;;23.40;49.40;;;;;;5068287;28;20199;-92
2022/09/01 01:56:51;;;;;;;7.03;2.70;;;23.30;49.30;;;;;;5068387;28;20237;-91
2022/09/01 01:59:23;;;;;;;8.07;2.97;;;23.40;49.70;;;;;;5064221;28;20213;-93
2022/09/01 02:02:03;;;;;;;12.50;4.23;;;23.30;49.40;;;;;;5058637;28;20201;-92
2022/09/01 02:04:50;;;;;;;8.00;2.97;;;23.30;49.40;;;;;;5068592;28;20234;-91
2022/09/01 02:07:20;;;;;;;11.00;3.60;;;23.30;49.60;;;;;;5028206;28;1164408;-91
2022/09/01 02:10:02;;;;;;;12.10;3.70;;;23.20;49.70;;;;;;5069790;28;20195;-91
2022/09/01 02:12:31;;;;;;;14.37;4.37;;;23.30;50.00;;;;;;5063972;28;20206;-93
2022/09/01 02:15:01;;;;;;;10.57;3.40;;;23.20;49.70;;;;;;5071007;28;20254;-90
2022/09/01 02:20:04;;;;;;;8.03;2.93;;;23.20;50.10;;;;;;5106865;22;20234;-91
2022/09/01 02:22:33;;;;;;;5.90;2.47;;;23.20;49.90;;;;;;5069113;28;20213;-93
2022/09/01 02:25:03;;;;;;;17.17;5.63;;;23.20;50.00;;;;;;5070993;28;20238;-92
2022/09/01 02:27:35;;;;;;;14.70;3.73;;;23.10;50.00;;;;;;5067605;28;20202;-93
2022/09/01 02:30:05;;;;;;;7.73;3.03;;;23.10;50.10;;;;;;5053399;28;20201;-91
2022/09/01 02:32:38;;;;;;;7.33;2.90;;;23.10;50.10;;;;;;5070290;28;20320;-91
2022/09/01 02:35:08;;;;;;;10.40;3.00;;;23.10;50.30;;;;;;5056079;28;20295;-92
2022/09/01 02:37:38;;;;;;;6.60;2.33;;;23.10;50.30;;;;;;5080586;22;20231;-92
2022/09/01 02:40:10;;;;;;;10.50;3.63;;;23.10;50.30;;;;;;5073510;28;20294;-92
2022/09/01 02:42:54;;;;;;;13.30;3.97;;;23.10;50.40;;;;;;5070039;28;20644;-92
2022/09/01 02:45:23;;;;;;;7.97;2.93;;;23.10;51.10;;;;;;5072362;28;20231;-91
2022/09/01 02:47:51;;;;;;;21.30;6.13;;;23.00;50.20;;;;;;5071119;28;20214;-91
2022/09/01 02:50:18;;;;;;;17.90;5.17;;;23.00;50.40;;;;;;5070966;28;20208;-92
2022/09/01 02:52:48;;;;;;;8.77;3.13;;;23.00;50.40;;;;;;5069075;28;20207;-91
2022/09/01 02:55:20;;;;;;;20.33;5.80;;;23.00;50.40;;;;;;5070388;28;20203;-91
2022/09/01 02:57:49;;;;;;;9.07;3.27;;;22.90;50.50;;;;;;5066007;28;20195;-92
2022/09/01 03:00:27;;;;;;;17.60;5.73;;;22.90;50.50;;;;;;5075983;28;20200;-92
2022/09/01 03:02:56;;;;;;;10.83;3.83;;;22.90;50.60;;;;;;5071404;28;20213;-91
2022/09/01 03:05:25;;;;;;;8.63;2.63;;;22.90;50.60;;;;;;5074068;28;20227;-92
2022/09/01 03:07:56;;;;;;;10.00;3.13;;;22.90;50.60;;;;;;5075616;28;20191;-93
2022/09/01 03:10:55;;;;;;;9.33;3.37;;;22.80;50.70;;;;;;5073431;28;20196;-93
2022/09/01 03:13:24;;;;;;;18.07;5.90;;;22.80;51.10;;;;;;5027642;28;20688;-92
2022/09/01 03:15:52;;;;;;;5.53;2.20;;;22.70;51.30;;;;;;5065374;28;20199;-91
2022/09/01 03:18:19;;;;;;;12.53;4.53;;;22.70;50.90;;;;;;5062822;28;20234;-92
2022/09/01 03:20:51;;;;;;;8.10;3.07;;;22.70;51.10;;;;;;5051966;28;20203;-92
2022/09/01 03:23:19;;;;;;;9.33;3.00;;;22.70;51.20;;;;;;5053968;28;20207;-91
2022/09/01 03:25:48;;;;;;;5.93;2.57;;;22.60;51.10;;;;;;5065474;28;20231;-93
2022/09/01 03:28:16;;;;;;;8.67;3.33;;;22.60;51.40;;;;;;5051420;28;20238;-90
2022/09/01 03:30:58;;;;;;;13.40;4.87;;;22.60;51.50;;;;;;5050948;28;20204;-92
2022/09/01 03:36:17;;;;;;;9.63;3.17;;;22.50;51.70;;;;;;5051352;28;20222;-92
2022/09/01 03:38:47;;;;;;;10.27;3.97;;;22.50;51.70;;;;;;5051430;28;20200;-92
2022/09/01 03:41:16;;;;;;;9.00;3.37;;;22.40;51.80;;;;;;5050123;28;20290;-92
2022/09/01 03:43:45;;;;;;;12.73;4.53;;;22.40;51.90;;;;;;5044183;28;20276;-92
2022/09/01 03:46:20;;;;;;;11.87;4.20;;;22.40;51.90;;;;;;5050597;28;20754;-93
2022/09/01 03:48:49;;;;;;;9.87;3.60;;;22.30;52.10;;;;;;5045790;28;20206;-92
2022/09/01 03:51:17;;;;;;;6.00;2.63;;;22.30;52.10;;;;;;5048525;28;20203;-92
2022/09/01 03:53:46;;;;;;;12.57;4.47;;;22.30;52.20;;;;;;5050522;28;20238;-92
2022/09/01 03:56:14;;;;;;;6.90;2.80;;;22.20;52.20;;;;;;5071430;28;20213;-92
2022/09/01 03:58:47;;;;;;;10.30;3.63;;;22.20;52.30;;;;;;5075405;28;20265;-93
2022/09/01 04:01:17;;;;;;;11.27;4.07;;;22.20;52.70;;;;;;5031553;28;20217;-93
2022/09/01 04:03:47;;;;;;;6.37;2.97;;;22.10;52.50;;;;;;5063250;22;20220;-93
2022/09/01 04:06:22;;;;;;;6.90;3.07;;;22.10;52.50;;;;;;5071430;28;20224;-91
2022/09/01 04:09:01;;;;;;;7.90;3.00;;;22.10;52.90;;;;;;5073456;28;20293;-92
2022/09/01 04:11:29;;;;;;;8.90;3.30;;;22.10;52.80;;;;;;5054441;28;20201;-92
2022/09/01 04:14:07;;;;;;;13.23;5.10;;;22.10;52.90;;;;;;5068976;28;20199;-92
2022/09/01 04:19:25;;;;;;;8.57;3.23;;;22.00;53.10;;;;;;5070834;28;20230;-94
2022/09/01 04:21:54;;;;;;;11.47;4.33;;;22.00;53.20;;;;;;5070859;28;20207;-94
2022/09/01 04:24:53;;;;;;;7.40;3.00;;;22.00;53.30;;;;;;5071852;28;20207;-94
2022/09/01 04:27:25;;;;;;;7.23;2.77;;;21.90;53.30;;;;;;5061647;28;20209;-95
2022/09/01 04:29:55;;;;;;;13.87;5.13;;;21.90;53.40;;;;;;5071522;28;20715;-93
2022/09/01 04:32:46;;;;;;;6.33;2.57;;;21.90;53.50;;;;;;5062488;28;20210;-94
2022/09/01 04:35:15;;;;;;;6.63;2.63;;;21.90;54.00;;;;;;5064291;28;20207;-95
2022/09/01 04:37:46;;;;;;;10.67;3.43;;;21.80;53.50;;;;;;5070996;28;20261;-94
2022/09/01 04:40:14;;;;;;;9.30;3.50;;;21.80;53.70;;;;;;5070643;28;20215;-94
2022/09/01 04:42:41;;;;;;;8.87;3.67;;;21.80;53.70;;;;;;5063788;28;20633;-92
2022/09/01 04:45:11;;;;;;;7.53;3.27;;;21.70;53.70;;;;;;5066714;28;20230;-93
2022/09/01 04:47:40;;;;;;;6.60;3.27;;;21.70;53.90;;;;;;5067776;28;20195;-92
2022/09/01 04:50:13;;;;;;;6.90;2.80;;;21.70;54.00;;;;;;5068015;28;20232;-93
2022/09/01 04:52:43;;;;;;;11.37;3.60;;;21.70;54.20;;;;;;5068851;28;20662;-93
2022/09/01 04:55:16;;;;;;;8.03;3.33;;;21.70;54.30;;;;;;5070252;28;20211;-92
2022/09/01 04:57:49;;;;;;;9.27;3.67;;;21.60;54.20;;;;;;5070863;28;20206;-92
2022/09/01 05:00:22;;;;;;;7.20;2.90;;;21.60;54.50;;;;;;5059343;28;20214;-92
2022/09/01 05:08:38;;;;;;;6.33;2.53;;;21.60;54.70;;;;;;5078258;28;20675;-93
2022/09/01 05:11:08;;;;;;;5.60;2.20;;;21.50;54.90;;;;;;5081367;28;20203;-94
2022/09/01 05:13:37;;;;;;;6.47;2.90;;;21.50;54.70;;;;;;5061834;28;20208;-93
2022/09/01 05:16:11;;;;;;;11.80;4.33;;;21.40;54.70;;;;;;5076870;28;20226;-93
2022/09/01 05:18:39;;;;;;;7.47;3.33;;;21.40;55.10;;;;;;5075425;28;20743;-91
2022/09/01 05:21:09;;;;;;;9.73;3.60;;;21.40;55.00;;;;;;5072687;28;20211;-94
2022/09/01 05:23:39;;;;;;;5.13;2.53;;;21.40;55.20;;;;;;5071131;28;20208;-92
2022/09/01 05:26:30;;;;;;;9.10;3.50;;;21.40;55.10;;;;;;5072011;28;20231;-94
2022/09/01 05:29:03;;;;;;;6.47;2.77;;;21.30;55.80;;;;;;5059510;28;20601;-93
2022/09/01 05:31:36;;;;;;;10.97;3.97;;;21.30;55.50;;;;;;5059908;28;20653;-93
2022/09/01 05:37:11;;;;;;;9.73;4.23;;;21.30;55.80;;;;;;5026747;28;20200;-95
2022/09/01 05:39:40;;;;;;;10.10;3.87;;;21.30;55.60;;;;;;5065673;28;20211;-94
2022/09/01 05:42:23;;;;;;;9.80;3.40;;;21.30;55.80;;;;;;5059651;28;20256;-91
2022/09/01 05:44:53;;;;;;;6.63;2.93;;;21.20;56.20;;;;;;5077424;28;20289;-94
2022/09/01 05:47:25;;;;;;;5.73;2.83;;;21.20;55.70;;;;;;5077135;28;20624;-94
2022/09/01 05:49:57;;;;;;;7.00;3.03;;;21.20;56.00;;;;;;5074635;28;20211;-93
2022/09/01 05:52:28;;;;;;;11.53;4.23;;;21.20;56.20;;;;;;5075915;28;20204;-95
2022/09/01 05:57:49;;;;;;;13.77;4.70;;;21.20;56.10;;;;;;5073776;28;20229;-94
2022/09/01 06:00:17;;;;;;;4.30;2.23;;;21.20;56.60;;;;;;5073963;28;20199;-95
2022/09/01 06:02:45;;;;;;;5.77;2.80;;;21.20;56.10;;;;;;5076673;28;20199;-94
2022/09/01 06:05:20;;;;;;;7.43;3.20;;;21.20;56.10;;;;;;5076435;28;20203;-95
2022/09/01 06:07:56;;;;;;;5.90;2.80;;;21.20;56.60;;;;;;5077094;28;20199;-95
2022/09/01 06:13:40;;;;;;;10.20;3.43;;;21.20;56.70;;;;;;5049981;28;20214;-95
2022/09/01 06:16:09;;;;;;;9.97;4.27;;;21.20;56.30;;;;;;5077869;28;20214;-95
2022/09/01 06:18:46;;;;;;;11.10;4.30;;;21.20;56.40;;;;;;5077495;28;20203;-95
2022/09/01 06:21:15;;;;;;;9.33;4.07;;;21.20;56.50;;;;;;5075943;28;20230;-95
2022/09/01 06:23:49;;;;;;;8.53;3.50;;;21.20;56.50;;;;;;5057211;28;20207;-95
2022/09/01 06:26:25;;;;;;;4.30;2.70;;;21.20;56.60;;;;;;5077273;28;20235;-95
2022/09/01 06:29:03;;;;;;;8.17;3.70;;;21.20;56.60;;;;;;5079504;28;20195;-95
2022/09/01 06:31:32;;;;;;;8.27;3.97;;;21.30;56.70;;;;;;5075095;28;20203;-95
2022/09/01 06:34:12;;;;;;;6.03;3.00;;;21.30;56.50;;;;;;5075614;28;20238;-95
2022/09/01 06:36:41;;;;;;;6.77;3.30;;;21.30;56.70;;;;;;5083170;28;20215;-95
2022/09/01 06:39:18;;;;;;;6.93;3.43;;;21.30;56.50;;;;;;5079146;28;20648;-95
2022/09/01 06:42:28;;;;;;;10.53;4.40;;;21.30;56.60;;;;;;5073661;28;20257;-96
2022/09/01 06:44:55;;;;;;;7.37;3.50;;;21.30;56.70;;;;;;5060905;28;20704;-96
2022/09/01 06:47:30;;;;;;;8.93;3.97;;;21.30;56.10;;;;;;5065935;28;20699;-95
2022/09/01 06:50:00;;;;;;;8.03;3.97;;;21.40;56.70;;;;;;5062177;28;20267;-96
2022/09/01 06:55:46;;;;;;;9.47;4.47;;;21.40;56.70;;;;;;5055377;28;20287;-94
2022/09/01 06:58:15;;;;;;;10.97;4.70;;;21.40;56.20;;;;;;5060611;28;20204;-96
2022/09/01 07:00:58;;;;;;;12.33;4.30;;;21.50;56.10;;;;;;5059567;28;20212;-96
2022/09/01 07:04:05;;;;;;;10.30;5.07;;;21.50;56.40;;;;;;5055495;28;20207;-96
2022/09/01 07:06:49;;;;;;;12.87;4.97;;;21.50;56.20;;;;;;5039174;28;20255;-96
2022/09/01 07:09:58;;;;;;;8.07;4.13;;;21.60;56.10;;;;;;5060292;28;20196;-96
2022/09/01 07:12:34;;;;;;;9.13;4.47;;;21.60;56.00;;;;;;5056099;28;20300;-95
2022/09/01 07:15:03;;;;;;;9.73;4.40;;;21.70;55.60;;;;;;5056100;28;20600;-94
2022/09/01 07:24:03;;;;;;;10.47;4.93;;;21.80;55.70;;;;;;4998330;28;20215;-95
2022/09/01 07:26:32;;;;;;;10.50;3.87;;;21.80;55.50;;;;;;5078063;28;20291;-94
2022/09/01 07:29:04;;;;;;;9.43;4.73;;;21.90;55.50;;;;;;5077634;28;20218;-95
2022/09/01 07:31:44;;;;;;;12.77;5.17;;;21.90;55.40;;;;;;5081037;28;20253;-96
2022/09/01 07:34:15;;;;;;;18.40;7.40;;;22.00;55.70;;;;;;5079533;28;20207;-96
2022/09/01 07:36:44;;;;;;;8.03;4.47;;;22.00;55.50;;;;;;5081451;28;20229;-94
2022/09/01 07:39:17;;;;;;;12.83;5.53;;;22.10;56.10;;;;;;5085087;28;20199;-94
2022/09/01 07:41:45;;;;;;;7.73;4.70;;;22.10;55.50;;;;;;5083679;28;20203;-95
2022/09/01 07:44:47;;;;;;;10.13;4.97;;;22.20;55.50;;;;;;5086391;28;20279;-95
2022/09/01 07:50:45;;;;;;;12.93;6.17;;;22.30;55.30;;;;;;5115711;22;20243;-96
2022/09/01 07:53:30;;;;;;;10.87;5.57;;;22.40;55.40;;;;;;5091329;28;20230;-95
2022/09/01 07:56:08;;;;;;;11.87;5.90;;;22.40;55.30;;;;;;5094678;28;20196;-95
2022/09/01 08:02:03;;;;;;;8.47;4.83;;;22.60;55.20;;;;;;5065558;28;20216;-96
2022/09/01 08:04:30;;;;;;;12.43;6.20;;;22.60;55.10;;;;;;5073194;28;20277;-93
2022/09/01 08:06:59;;;;;;;10.43;6.00;;;22.70;55.10;;;;;;5068805;28;20234;-92
2022/09/01 08:09:26;;;;;;;12.20;6.33;;;22.70;55.20;;;;;;5068228;28;20294;-92
2022/09/01 08:11:53;;;;;;;15.90;6.77;;;22.80;55.10;;;;;;5062192;28;20250;-94
2022/09/01 08:14:21;;;;;;;11.90;6.07;;;22.90;55.40;;;;;;5051830;28;20223;-92
2022/09/01 08:16:48;;;;;;;10.20;5.63;;;22.90;55.70;;;;;;5051571;28;20225;-92
2022/09/01 08:19:17;;;;;;;12.87;6.23;;;23.00;55.60;;;;;;5053671;28;20202;-92
2022/09/01 08:21:46;;;;;;;14.77;6.07;;;23.10;55.70;;;;;;5061604;28;20204;-93
2022/09/01 08:24:13;;;;;;;17.27;7.53;;;23.10;55.50;;;;;;5057080;28;20200;-94
2022/09/01 08:26:40;;;;;;;11.77;5.93;;;23.20;55.70;;;;;;5057646;28;20218;-95
2022/09/01 08:29:08;;;;;;;9.43;5.00;;;23.30;55.50;;;;;;5055636;28;20315;-94
2022/09/01 08:31:38;;;;;;;10.53;5.80;;;23.40;55.60;;;;;;5070141;28;20207;-92
2022/09/01 08:34:05;;;;;;;10.50;5.70;;;23.50;55.60;;;;;;5068727;28;20195;-92
2022/09/01 08:36:34;;;;;;;11.97;6.37;;;23.60;55.50;;;;;;5060567;28;20285;-92
2022/09/01 08:39:01;;;;;;;10.93;5.30;;;23.60;55.40;;;;;;5063061;28;20249;-91
2022/09/01 08:41:41;;;;;;;17.97;7.57;;;23.70;55.30;;;;;;5063175;28;20847;-92
2022/09/01 08:44:19;;;;;;;12.30;6.33;;;23.80;55.30;;;;;;5063934;28;20207;-94
2022/09/01 08:46:46;;;;;;;9.23;5.60;;;23.90;55.60;;;;;;5070568;28;21476;-93
2022/09/01 08:49:16;;;;;;;15.67;7.33;;;24.00;55.50;;;;;;5068333;28;20294;-94
2022/09/01 08:51:52;;;;;;;16.57;8.10;;;24.10;55.80;;;;;;5066523;28;20207;-94
2022/09/01 08:54:28;;;;;;;11.30;5.97;;;24.30;55.70;;;;;;5062577;28;20261;-92
2022/09/01 08:57:01;;;;;;;10.67;6.27;;;24.50;55.70;;;;;;5045456;28;20203;-93
2022/09/01 08:59:30;;;;;;;12.10;6.00;;;24.70;55.90;;;;;;5065768;28;20206;-93
2022/09/01 09:02:06;;;;;;;13.87;6.53;;;24.80;55.50;;;;;;5067030;28;20656;-95
2022/09/01 09:04:52;;;;;;;11.77;6.80;;;25.10;55.20;;;;;;5090479;28;20205;-94
2022/09/01 09:07:37;;;;;;;18.67;7.57;;;25.40;55.00;;;;;;5088142;28;20305;-93
2022/09/01 09:10:10;;;;;;;11.93;5.97;;;25.70;55.00;;;;;;5086735;28;20215;-94
2022/09/01 09:13:49;;;;;;;8.67;4.87;;;26.00;55.00;;;;;;5085652;28;20256;-96
2022/09/01 09:16:27;;;;;;;15.13;6.03;;;26.30;53.90;;;;;;5074790;28;20642;-95
2022/09/01 09:19:00;;;;;;;6.33;4.77;;;26.60;53.70;;;;;;5076186;28;20294;-93
2022/09/01 09:21:34;;;;;;;16.80;6.33;;;26.80;53.40;;;;;;5075370;28;20652;-96
2022/09/01 09:27:40;;;;;;;8.87;5.43;;;27.40;53.10;;;;;;5065770;28;20235;-96
2022/09/01 09:30:11;;;;;;;8.27;5.67;;;27.70;52.60;;;;;;5075936;28;20200;-96
2022/09/01 09:32:51;;;;;;;6.53;4.10;;;27.90;52.50;;;;;;5073074;28;20228;-96
2022/09/01 09:35:32;;;;;;;8.23;5.27;;;28.10;51.20;;;;;;5065408;28;20955;-95
2022/09/01 09:38:21;;;;;;;7.77;4.50;;;28.40;51.00;;;;;;5061848;28;20277;-96
2022/09/01 09:41:36;;;;;;;6.13;4.13;;;28.50;50.60;;;;;;5063752;28;20287;-96
2022/09/01 09:44:17;;;;;;;7.27;5.33;;;28.80;50.10;;;;;;5051511;28;20231;-96
2022/09/01 09:49:38;;;;;;;6.95;4.90;;;29.20;50.60;;;;;;5056091;28;20495;-94
2022/09/01 09:55:06;;;;;;;5.68;4.07;;;29.60;48.90;;;;;;5072623;28;20203;-95
2022/09/01 10:01:40;;;;;;;5.95;4.28;;;29.90;48.60;;;;;;5051281;28;20222;-96
2022/09/01 10:04:32;;;;;;;10.63;4.60;;;30.20;48.60;;;;;;5069445;28;20639;-96
2022/09/01 10:07:41;;;;;;;6.43;4.05;;;30.40;48.10;;;;;;5067245;28;20215;-96
2022/09/01 10:16:36;;;;;;;8.70;5.10;;;30.80;47.20;;;;;;5039479;28;20545;-93
2022/09/01 10:19:06;;;;;;;7.85;4.63;;;30.90;47.10;;;;;;5033423;28;20196;-93
2022/09/01 10:21:38;;;;;;;10.00;5.68;;;31.10;47.40;;;;;;5052606;28;20204;-95
2022/09/01 10:24:16;;;;;;;33.38;7.43;;;31.10;46.40;;;;;;5051839;28;20214;-91
2022/09/01 10:26:47;;;;;;;7.40;4.65;;;31.30;46.50;;;;;;5034387;28;20236;-93
2022/09/01 10:29:18;;;;;;;7.53;4.68;;;31.40;46.70;;;;;;5051097;28;20204;-94
2022/09/01 10:32:08;;;;;;;5.57;3.63;;;31.50;46.30;;;;;;5048222;28;20262;-94
2022/09/01 10:34:39;;;;;;;6.07;4.10;;;31.60;45.70;;;;;;5060060;28;20235;-95
2022/09/01 10:37:07;;;;;;;11.25;5.22;;;31.80;45.80;;;;;;5055043;28;20207;-93
2022/09/01 10:42:42;;;;;;;6.80;3.97;;;32.00;45.70;;;;;;5056380;28;20242;-94
2022/09/01 10:45:42;;;;;;;5.43;3.28;;;32.10;45.20;;;;;;5053334;28;20706;-96
2022/09/01 10:48:32;;;;;;;3.65;2.90;;;32.30;43.70;;;;;;5051309;28;20227;-94
2022/09/01 10:51:36;;;;;;;5.47;3.50;;;32.40;43.50;;;;;;5050894;28;20865;-95
2022/09/01 10:54:04;;;;;;;6.15;3.63;;;32.40;43.60;;;;;;5054082;28;20199;-92
2022/09/01 10:56:40;;;;;;;8.18;3.65;;;32.60;44.10;;;;;;5053312;28;20203;-96
2022/09/01 10:59:09;;;;;;;9.68;4.63;;;32.60;42.90;;;;;;5055338;28;20192;-94
2022/09/01 11:02:09;;;;;;;5.55;3.67;;;32.70;43.30;;;;;;5054937;28;20602;-94
2022/09/01 11:05:15;;;;;;;5.32;3.67;;;32.80;43.10;;;;;;5041840;28;20675;-94
2022/09/01 11:07:45;;;;;;;7.20;4.50;;;32.80;41.70;;;;;;5032828;28;20242;-94
2022/09/01 11:10:27;;;;;;;7.18;4.13;;;33.00;42.80;;;;;;5052757;28;20672;-94
2022/09/01 11:13:18;;;;;;;5.60;3.67;;;33.00;41.90;;;;;;5055379;28;20711;-96
2022/09/01 11:15:46;;;;;;;7.03;3.78;;;33.10;41.20;;;;;;5057412;28;20607;-94
2022/09/01 11:18:16;;;;;;;8.30;4.22;;;33.20;41.80;;;;;;5056085;28;20641;-94
2022/09/01 11:20:49;;;;;;;7.20;3.88;;;33.30;41.20;;;;;;5055891;28;20204;-95
2022/09/01 11:23:29;;;;;;;4.22;2.72;;;33.30;41.30;;;;;;5052250;28;20196;-94
2022/09/01 11:26:01;;;;;;;6.25;3.85;;;33.40;41.30;;;;;;5053446;28;20204;-93
2022/09/01 11:28:48;;;;;;;6.38;3.83;;;33.50;41.50;;;;;;5053265;28;20237;-96
2022/09/01 11:31:27;;;;;;;10.18;5.15;;;33.60;41.30;;;;;;5053909;28;20204;-95
2022/09/01 11:34:05;;;;;;;9.32;5.13;;;33.60;39.80;;;;;;5052884;28;20206;-95
2022/09/01 11:36:38;;;;;;;7.97;4.68;;;33.80;40.00;;;;;;5052694;28;20215;-94
2022/09/01 11:39:21;;;;;;;8.23;4.30;;;33.80;40.50;;;;;;5051753;28;20227;-95
2022/09/01 11:41:54;;;;;;;6.88;3.95;;;33.90;40.30;;;;;;5054422;28;20319;-95
2022/09/01 11:44:26;;;;;;;6.38;3.97;;;33.90;40.00;;;;;;5057506;28;20196;-96
2022/09/01 11:47:00;;;;;;;6.82;3.78;;;33.90;39.60;;;;;;5055175;28;20327;-95
2022/09/01 11:49:31;;;;;;;7.72;4.15;;;33.90;39.30;;;;;;5052000;28;20208;-94
2022/09/01 11:52:02;;;;;;;8.65;4.93;;;34.00;39.70;;;;;;5051309;28;20266;-94
2022/09/01 11:54:37;;;;;;;7.55;4.57;;;34.00;39.50;;;;;;5050852;28;20196;-95
2022/09/01 11:57:29;;;;;;;7.47;3.35;;;34.00;39.60;;;;;;5053657;28;20896;-93
2022/09/01 11:59:58;;;;;;;5.57;3.45;;;34.00;38.70;;;;;;5051380;28;20250;-93
2022/09/01 12:02:29;;;;;;;5.53;3.60;;;34.10;39.70;;;;;;5052317;28;20291;-93
2022/09/01 12:04:58;;;;;;;6.45;3.30;;;34.10;39.70;;;;;;5051447;28;20258;-94
2022/09/01 12:07:39;;;;;;;4.00;3.00;;;34.30;39.70;;;;;;5054454;28;20227;-96
2022/09/01 12:10:17;;;;;;;7.43;4.68;;;34.30;38.30;;;;;;5051338;28;20231;-96
2022/09/01 12:12:44;;;;;;;7.00;4.22;;;34.40;38.20;;;;;;5050414;28;20747;-96
2022/09/01 12:15:20;;;;;;;7.10;3.65;;;34.40;38.80;;;;;;5050682;28;20653;-94
2022/09/01 12:17:48;;;;;;;9.25;4.13;;;34.40;38.00;;;;;;5050151;28;20257;-96
2022/09/01 12:20:29;;;;;;;8.63;4.70;;;34.40;38.10;;;;;;5049840;28;20204;-94
2022/09/01 12:23:15;;;;;;;5.88;4.05;;;34.40;37.60;;;;;;5053656;28;20208;-96
2022/09/01 12:25:46;;;;;;;7.45;4.65;;;34.40;37.60;;;;;;5059857;28;20204;-93
2022/09/01 12:28:16;;;;;;;8.50;4.22;;;34.40;38.80;;;;;;5050966;28;20227;-96
2022/09/01 12:30:44;;;;;;;6.13;4.03;;;34.40;38.30;;;;;;5053607;28;20215;-96
2022/09/01 12:33:13;;;;;;;6.90;4.40;;;34.40;38.10;;;;;;5056114;28;20211;-96
2022/09/01 12:35:42;;;;;;;13.20;3.63;;;34.30;37.60;;;;;;5054001;28;20235;-94
2022/09/01 12:38:30;;;;;;;8.38;3.83;;;34.40;38.10;;;;;;5055339;28;20204;-95
2022/09/01 12:40:58;;;;;;;6.78;3.97;;;34.40;37.60;;;;;;5051949;28;20201;-95
2022/09/01 12:43:35;;;;;;;6.50;4.00;;;34.40;37.90;;;;;;5053361;28;20197;-94
2022/09/01 12:46:03;;;;;;;8.73;4.43;;;34.50;37.80;;;;;;5052562;28;20231;-95
2022/09/01 12:48:33;;;;;;;7.93;4.75;;;34.40;37.60;;;;;;5048795;28;20232;-92
2022/09/01 12:51:08;;;;;;;8.25;3.15;;;34.50;37.70;;;;;;5053800;28;20219;-95
2022/09/01 12:53:37;;;;;;;4.38;2.83;;;34.40;38.00;;;;;;5041227;28;20203;-95
2022/09/01 12:56:25;;;;;;;2.22;2.00;;;34.50;37.60;;;;;;5052445;28;20283;-96
2022/09/01 12:59:05;;;;;;;6.80;3.40;;;34.50;36.70;;;;;;5062098;28;20214;-92
2022/09/01 13:01:39;;;;;;;4.35;3.08;;;34.50;36.30;;;;;;5058342;28;20196;-95
2022/09/01 13:04:37;;;;;;;4.95;2.97;;;34.50;37.00;;;;;;5061961;28;20652;-96
2022/09/01 13:07:09;;;;;;;8.63;4.68;;;34.50;36.80;;;;;;5057292;28;20201;-96
2022/09/01 13:09:37;;;;;;;5.57;3.47;;;34.60;37.50;;;;;;5072451;28;20206;-94
2022/09/01 13:12:15;;;;;;;6.55;3.33;;;34.70;36.80;;;;;;5068526;28;20220;-96
2022/09/01 13:14:49;;;;;;;3.17;2.05;;;34.70;35.80;;;;;;5065578;28;20227;-96
2022/09/01 13:17:18;;;;;;;8.00;3.70;;;34.80;36.10;;;;;;5066855;28;20230;-93
2022/09/01 13:19:49;;;;;;;3.03;2.50;;;34.90;36.20;;;;;;5067102;28;20231;-96
2022/09/01 13:22:18;;;;;;;7.78;4.30;;;34.90;35.60;;;;;;5056188;28;20275;-96
2022/09/01 13:25:21;;;;;;;5.40;3.45;;;34.90;36.00;;;;;;5054110;28;20664;-96
2022/09/01 13:27:54;;;;;;;7.97;3.92;;;34.90;35.40;;;;;;5041797;28;20256;-96
2022/09/01 13:30:28;;;;;;;5.53;3.78;;;34.90;35.80;;;;;;5049867;28;20215;-95
2022/09/01 13:32:56;;;;;;;5.03;2.40;;;34.90;35.80;;;;;;5055312;28;20261;-96
2022/09/01 13:35:29;;;;;;;4.43;3.08;;;34.90;36.20;;;;;;5057797;28;20188;-96
2022/09/01 13:37:59;;;;;;;5.82;3.45;;;35.00;35.50;;;;;;5054954;28;20620;-96
2022/09/01 13:40:27;;;;;;;7.30;3.95;;;35.00;35.30;;;;;;5054083;28;20211;-96
2022/09/01 13:42:59;;;;;;;7.05;3.85;;;35.10;35.60;;;;;;5055794;28;21101;-96
2022/09/01 13:45:28;;;;;;;5.05;3.38;;;35.10;35.20;;;;;;5052605;28;20303;-95
2022/09/01 13:47:57;;;;;;;6.78;3.75;;;35.20;35.00;;;;;;5054021;28;20232;-96
2022/09/01 13:50:54;;;;;;;3.92;2.95;;;35.20;35.20;;;;;;5054733;28;20196;-96
2022/09/01 13:53:43;;;;;;;6.43;3.88;;;35.30;35.20;;;;;;5062866;28;20218;-96
2022/09/01 13:56:14;;;;;;;6.78;3.65;;;35.40;34.50;;;;;;5059581;28;20190;-96
2022/09/01 13:58:55;;;;;;;3.85;2.67;;;35.50;34.40;;;;;;5056775;28;20208;-96
2022/09/01 14:01:22;;;;;;;4.90;3.28;;;35.60;34.00;;;;;;5066441;28;20215;-96
2022/09/01 14:03:57;;;;;;;5.75;3.72;;;35.60;34.40;;;;;;5059088;28;20200;-96
2022/09/01 14:06:25;;;;;;;3.20;2.60;;;35.70;33.90;;;;;;5055682;28;20271;-96
2022/09/01 14:08:58;;;;;;;4.13;2.80;;;35.60;34.10;;;;;;5068949;28;20247;-96
2022/09/01 14:11:31;;;;;;;9.50;5.30;;;35.70;33.50;;;;;;5069557;28;20220;-96
2022/09/01 14:14:07;;;;;;;4.07;2.97;;;35.70;33.30;;;;;;5062450;28;20312;-96
2022/09/01 14:16:56;;;;;;;4.55;2.80;;;35.70;33.00;;;;;;5061032;28;20212;-96
2022/09/01 14:19:23;;;;;;;5.93;3.10;;;35.60;33.30;;;;;;5057898;28;20218;-96
2022/09/01 14:21:53;;;;;;;4.43;2.80;;;35.60;33.40;;;;;;5045926;28;20208;-96
2022/09/01 14:24:27;;;;;;;4.88;2.97;;;35.50;33.40;;;;;;5028524;28;20200;-95
2022/09/01 14:26:58;;;;;;;6.30;3.63;;;35.30;33.10;;;;;;5039020;28;20653;-95
2022/09/01 14:29:26;;;;;;;4.78;2.70;;;35.20;33.10;;;;;;5051909;28;20227;-94
2022/09/01 14:31:55;;;;;;;8.38;3.50;;;35.10;33.30;;;;;;5057365;28;20298;-96